sensor_id;sensor_type;location;lat;lon;timestamp;temperature;humidity
17740;DHT22;8990;33.226;-97.150;2023-02-19T00:00:31;10.40;99.90
17740;DHT22;8990;33.226;-97.150;2023-02-19T00:03:01;10.40;99.90
17740;DHT22;8990;33.226;-97.150;2023-02-19T00:05:31;10.30;99.90
17740;DHT22;8990;33.226;-97.150;2023-02-19T00:08:03;10.20;99.90
17740;DHT22;8990;33.226;-97.150;2023-02-19T00:10:33;10.30;99.90
17740;DHT22;8990;33.226;-97.150;2023-02-19T00:13:04;10.30;99.90
17740;DHT22;8990;33.226;-97.150;2023-02-19T00:15:33;10.20;99.90
17740;DHT22;8990;33.226;-97.150;2023-02-19T00:18:03;10.00;99.90
17740;DHT22;8990;33.226;-97.150;2023-02-19T00:20:32;10.10;99.90
17740;DHT22;8990;33.226;-97.150;2023-02-19T00:23:01;10.10;99.90
17740;DHT22;8990;33.226;-97.150;2023-02-19T00:25:30;10.00;99.90
17740;DHT22;8990;33.226;-97.150;2023-02-19T00:28:00;10.00;99.90
17740;DHT22;8990;33.226;-97.150;2023-02-19T00:30:30;9.90;99.90
17740;DHT22;8990;33.226;-97.150;2023-02-19T00:33:01;9.90;99.90
17740;DHT22;8990;33.226;-97.150;2023-02-19T00:35:33;9.90;99.90
17740;DHT22;8990;33.226;-97.150;2023-02-19T00:38:04;9.90;99.90
17740;DHT22;8990;33.226;-97.150;2023-02-19T00:40:33;9.90;99.90
17740;DHT22;8990;33.226;-97.150;2023-02-19T00:43:03;9.90;99.90
17740;DHT22;8990;33.226;-97.150;2023-02-19T00:45:35;9.90;99.90
17740;DHT22;8990;33.226;-97.150;2023-02-19T00:48:05;9.80;99.90
17740;DHT22;8990;33.226;-97.150;2023-02-19T00:50:35;9.90;99.90
17740;DHT22;8990;33.226;-97.150;2023-02-19T00:53:04;9.80;99.90
17740;DHT22;8990;33.226;-97.150;2023-02-19T00:55:34;9.80;99.90
17740;DHT22;8990;33.226;-97.150;2023-02-19T00:58:04;9.80;99.90
17740;DHT22;8990;33.226;-97.150;2023-02-19T01:00:35;9.90;99.90
17740;DHT22;8990;33.226;-97.150;2023-02-19T01:03:05;9.80;99.90
17740;DHT22;8990;33.226;-97.150;2023-02-19T01:05:35;9.70;99.90
17740;DHT22;8990;33.226;-97.150;2023-02-19T01:08:04;9.80;99.90
17740;DHT22;8990;33.226;-97.150;2023-02-19T01:10:34;9.70;99.90
17740;DHT22;8990;33.226;-97.150;2023-02-19T01:13:03;9.70;99.90
17740;DHT22;8990;33.226;-97.150;2023-02-19T01:15:35;9.60;99.90
17740;DHT22;8990;33.226;-97.150;2023-02-19T01:18:04;9.70;99.90
17740;DHT22;8990;33.226;-97.150;2023-02-19T01:20:34;9.70;99.90
17740;DHT22;8990;33.226;-97.150;2023-02-19T01:23:05;9.70;99.90
17740;DHT22;8990;33.226;-97.150;2023-02-19T01:25:37;9.60;99.90
17740;DHT22;8990;33.226;-97.150;2023-02-19T01:28:07;9.70;99.90
17740;DHT22;8990;33.226;-97.150;2023-02-19T01:30:39;9.70;99.90
17740;DHT22;8990;33.226;-97.150;2023-02-19T01:33:09;9.50;99.90
17740;DHT22;8990;33.226;-97.150;2023-02-19T01:35:38;9.60;99.90
17740;DHT22;8990;33.226;-97.150;2023-02-19T01:38:09;9.50;99.90
17740;DHT22;8990;33.226;-97.150;2023-02-19T01:40:39;9.50;99.90
17740;DHT22;8990;33.226;-97.150;2023-02-19T01:43:14;9.60;99.90
17740;DHT22;8990;33.226;-97.150;2023-02-19T01:45:46;9.50;99.90
17740;DHT22;8990;33.226;-97.150;2023-02-19T01:48:19;9.40;99.90
17740;DHT22;8990;33.226;-97.150;2023-02-19T01:50:52;9.50;99.90
17740;DHT22;8990;33.226;-97.150;2023-02-19T01:53:26;9.40;99.90
17740;DHT22;8990;33.226;-97.150;2023-02-19T01:55:58;9.40;99.90
17740;DHT22;8990;33.226;-97.150;2023-02-19T01:58:32;9.40;99.90
17740;DHT22;8990;33.226;-97.150;2023-02-19T02:01:07;9.40;99.90
17740;DHT22;8990;33.226;-97.150;2023-02-19T02:03:38;9.50;99.90
17740;DHT22;8990;33.226;-97.150;2023-02-19T02:06:14;9.50;99.90
17740;DHT22;8990;33.226;-97.150;2023-02-19T02:08:45;9.50;99.90
17740;DHT22;8990;33.226;-97.150;2023-02-19T02:11:33;9.40;99.90
17740;DHT22;8990;33.226;-97.150;2023-02-19T02:14:04;9.40;99.90
17740;DHT22;8990;33.226;-97.150;2023-02-19T02:16:43;9.40;99.90
17740;DHT22;8990;33.226;-97.150;2023-02-19T02:19:25;9.40;99.90
17740;DHT22;8990;33.226;-97.150;2023-02-19T02:22:07;9.30;99.90
17740;DHT22;8990;33.226;-97.150;2023-02-19T02:25:11;9.30;99.90
17740;DHT22;8990;33.226;-97.150;2023-02-19T02:27:54;9.20;99.90
17740;DHT22;8990;33.226;-97.150;2023-02-19T02:30:40;9.20;99.90
17740;DHT22;8990;33.226;-97.150;2023-02-19T02:33:20;9.30;99.90
17740;DHT22;8990;33.226;-97.150;2023-02-19T02:35:58;9.30;99.90
17740;DHT22;8990;33.226;-97.150;2023-02-19T02:38:30;9.30;99.90
17740;DHT22;8990;33.226;-97.150;2023-02-19T02:41:01;9.30;99.90
17740;DHT22;8990;33.226;-97.150;2023-02-19T02:43:32;9.40;99.90
17740;DHT22;8990;33.226;-97.150;2023-02-19T02:46:02;9.40;99.90
17740;DHT22;8990;33.226;-97.150;2023-02-19T02:48:40;9.20;99.90
17740;DHT22;8990;33.226;-97.150;2023-02-19T02:51:16;9.30;99.90
17740;DHT22;8990;33.226;-97.150;2023-02-19T02:53:56;9.20;99.90
17740;DHT22;8990;33.226;-97.150;2023-02-19T02:56:45;9.20;99.90
17740;DHT22;8990;33.226;-97.150;2023-02-19T02:59:19;9.30;99.90
17740;DHT22;8990;33.226;-97.150;2023-02-19T03:01:56;9.30;99.90
17740;DHT22;8990;33.226;-97.150;2023-02-19T03:04:43;9.30;99.90
17740;DHT22;8990;33.226;-97.150;2023-02-19T03:07:36;9.30;99.90
17740;DHT22;8990;33.226;-97.150;2023-02-19T03:10:11;9.20;99.90
17740;DHT22;8990;33.226;-97.150;2023-02-19T03:12:44;9.30;99.90
17740;DHT22;8990;33.226;-97.150;2023-02-19T03:15:35;9.30;99.90
17740;DHT22;8990;33.226;-97.150;2023-02-19T03:18:26;9.20;99.90
17740;DHT22;8990;33.226;-97.150;2023-02-19T03:21:16;9.10;99.90
17740;DHT22;8990;33.226;-97.150;2023-02-19T03:23:49;9.10;99.90
17740;DHT22;8990;33.226;-97.150;2023-02-19T03:26:37;9.20;99.90
17740;DHT22;8990;33.226;-97.150;2023-02-19T03:29:11;9.20;99.90
17740;DHT22;8990;33.226;-97.150;2023-02-19T03:31:59;9.10;99.90
17740;DHT22;8990;33.226;-97.150;2023-02-19T03:34:33;9.10;99.90
17740;DHT22;8990;33.226;-97.150;2023-02-19T03:37:09;9.00;99.90
17740;DHT22;8990;33.226;-97.150;2023-02-19T03:39:41;9.10;99.90
17740;DHT22;8990;33.226;-97.150;2023-02-19T03:42:20;9.10;99.90
17740;DHT22;8990;33.226;-97.150;2023-02-19T03:45:06;9.00;99.90
17740;DHT22;8990;33.226;-97.150;2023-02-19T03:47:44;8.90;99.90
17740;DHT22;8990;33.226;-97.150;2023-02-19T03:50:22;9.00;99.90
17740;DHT22;8990;33.226;-97.150;2023-02-19T03:52:57;9.00;99.90
17740;DHT22;8990;33.226;-97.150;2023-02-19T03:55:35;8.90;99.90
17740;DHT22;8990;33.226;-97.150;2023-02-19T03:58:11;8.90;99.90
17740;DHT22;8990;33.226;-97.150;2023-02-19T04:00:46;8.80;99.90
17740;DHT22;8990;33.226;-97.150;2023-02-19T04:03:20;8.90;99.90
17740;DHT22;8990;33.226;-97.150;2023-02-19T04:05:57;8.90;99.90
17740;DHT22;8990;33.226;-97.150;2023-02-19T04:08:28;8.90;99.90
17740;DHT22;8990;33.226;-97.150;2023-02-19T04:11:04;8.90;99.90
17740;DHT22;8990;33.226;-97.150;2023-02-19T04:13:37;8.90;99.90
17740;DHT22;8990;33.226;-97.150;2023-02-19T04:16:12;8.80;99.90
17740;DHT22;8990;33.226;-97.150;2023-02-19T04:18:48;8.90;99.90
17740;DHT22;8990;33.226;-97.150;2023-02-19T04:21:22;8.90;99.90
17740;DHT22;8990;33.226;-97.150;2023-02-19T04:23:51;9.00;99.90
17740;DHT22;8990;33.226;-97.150;2023-02-19T04:26:22;9.00;99.90
17740;DHT22;8990;33.226;-97.150;2023-02-19T04:28:51;9.00;99.90
17740;DHT22;8990;33.226;-97.150;2023-02-19T04:31:26;9.00;99.90
17740;DHT22;8990;33.226;-97.150;2023-02-19T04:33:58;9.00;99.90
17740;DHT22;8990;33.226;-97.150;2023-02-19T04:36:29;9.00;99.90
17740;DHT22;8990;33.226;-97.150;2023-02-19T04:38:58;9.00;99.90
17740;DHT22;8990;33.226;-97.150;2023-02-19T04:43:57;9.00;99.90
17740;DHT22;8990;33.226;-97.150;2023-02-19T04:46:27;9.00;99.90
17740;DHT22;8990;33.226;-97.150;2023-02-19T04:48:58;9.00;99.90
17740;DHT22;8990;33.226;-97.150;2023-02-19T04:51:30;9.00;99.90
17740;DHT22;8990;33.226;-97.150;2023-02-19T04:53:59;9.00;99.90
17740;DHT22;8990;33.226;-97.150;2023-02-19T04:56:28;9.10;99.90
17740;DHT22;8990;33.226;-97.150;2023-02-19T04:58:57;9.10;99.90
17740;DHT22;8990;33.226;-97.150;2023-02-19T05:01:27;9.00;99.90
17740;DHT22;8990;33.226;-97.150;2023-02-19T05:03:56;9.00;99.90
17740;DHT22;8990;33.226;-97.150;2023-02-19T05:06:25;9.10;99.90
17740;DHT22;8990;33.226;-97.150;2023-02-19T05:08:57;9.10;99.90
17740;DHT22;8990;33.226;-97.150;2023-02-19T05:11:27;9.10;99.90
17740;DHT22;8990;33.226;-97.150;2023-02-19T05:13:56;9.20;99.90
17740;DHT22;8990;33.226;-97.150;2023-02-19T05:16:25;9.20;99.90
17740;DHT22;8990;33.226;-97.150;2023-02-19T05:18:55;9.20;99.90
17740;DHT22;8990;33.226;-97.150;2023-02-19T05:21:24;9.10;99.90
17740;DHT22;8990;33.226;-97.150;2023-02-19T05:23:53;9.20;99.90
17740;DHT22;8990;33.226;-97.150;2023-02-19T05:26:25;9.20;99.90
17740;DHT22;8990;33.226;-97.150;2023-02-19T05:28:58;9.20;99.90
17740;DHT22;8990;33.226;-97.150;2023-02-19T05:31:28;9.20;99.90
17740;DHT22;8990;33.226;-97.150;2023-02-19T05:34:00;9.20;99.90
17740;DHT22;8990;33.226;-97.150;2023-02-19T05:36:31;9.20;99.90
17740;DHT22;8990;33.226;-97.150;2023-02-19T05:39:00;9.20;99.90
17740;DHT22;8990;33.226;-97.150;2023-02-19T05:41:30;9.10;99.90
17740;DHT22;8990;33.226;-97.150;2023-02-19T05:44:00;9.10;99.90
17740;DHT22;8990;33.226;-97.150;2023-02-19T05:46:29;9.10;99.90
17740;DHT22;8990;33.226;-97.150;2023-02-19T05:48:58;9.10;99.90
17740;DHT22;8990;33.226;-97.150;2023-02-19T05:51:29;9.10;99.90
17740;DHT22;8990;33.226;-97.150;2023-02-19T05:53:58;9.10;99.90
17740;DHT22;8990;33.226;-97.150;2023-02-19T05:56:33;9.10;99.90
17740;DHT22;8990;33.226;-97.150;2023-02-19T05:59:04;9.10;99.90
17740;DHT22;8990;33.226;-97.150;2023-02-19T06:01:34;9.10;99.90
17740;DHT22;8990;33.226;-97.150;2023-02-19T06:04:04;9.20;99.90
17740;DHT22;8990;33.226;-97.150;2023-02-19T06:06:33;9.10;99.90
17740;DHT22;8990;33.226;-97.150;2023-02-19T06:09:03;9.10;99.90
17740;DHT22;8990;33.226;-97.150;2023-02-19T06:11:35;9.10;99.90
17740;DHT22;8990;33.226;-97.150;2023-02-19T06:14:06;9.20;99.90
17740;DHT22;8990;33.226;-97.150;2023-02-19T06:16:35;9.00;99.90
17740;DHT22;8990;33.226;-97.150;2023-02-19T06:19:05;9.20;99.90
17740;DHT22;8990;33.226;-97.150;2023-02-19T06:21:35;9.20;99.90
17740;DHT22;8990;33.226;-97.150;2023-02-19T06:24:06;9.30;99.90
17740;DHT22;8990;33.226;-97.150;2023-02-19T06:26:37;9.30;99.90
17740;DHT22;8990;33.226;-97.150;2023-02-19T06:29:08;9.30;99.90
17740;DHT22;8990;33.226;-97.150;2023-02-19T06:31:38;9.30;99.90
17740;DHT22;8990;33.226;-97.150;2023-02-19T06:34:07;9.40;99.90
17740;DHT22;8990;33.226;-97.150;2023-02-19T06:36:37;9.40;99.90
17740;DHT22;8990;33.226;-97.150;2023-02-19T06:39:06;9.40;99.90
17740;DHT22;8990;33.226;-97.150;2023-02-19T06:41:37;9.50;99.90
17740;DHT22;8990;33.226;-97.150;2023-02-19T06:44:06;9.50;99.90
17740;DHT22;8990;33.226;-97.150;2023-02-19T06:46:36;9.50;99.90
17740;DHT22;8990;33.226;-97.150;2023-02-19T06:49:05;9.60;99.90
17740;DHT22;8990;33.226;-97.150;2023-02-19T06:51:34;9.60;99.90
17740;DHT22;8990;33.226;-97.150;2023-02-19T06:54:04;9.60;99.90
17740;DHT22;8990;33.226;-97.150;2023-02-19T06:56:34;9.60;99.90
17740;DHT22;8990;33.226;-97.150;2023-02-19T06:59:07;9.50;99.90
17740;DHT22;8990;33.226;-97.150;2023-02-19T07:01:39;9.50;99.90
17740;DHT22;8990;33.226;-97.150;2023-02-19T07:04:08;9.50;99.90
17740;DHT22;8990;33.226;-97.150;2023-02-19T07:06:37;9.50;99.90
17740;DHT22;8990;33.226;-97.150;2023-02-19T07:09:07;9.50;99.90
17740;DHT22;8990;33.226;-97.150;2023-02-19T07:11:39;9.50;99.90
17740;DHT22;8990;33.226;-97.150;2023-02-19T07:14:14;9.50;99.90
17740;DHT22;8990;33.226;-97.150;2023-02-19T07:16:44;9.40;99.90
17740;DHT22;8990;33.226;-97.150;2023-02-19T07:19:14;9.40;99.90
17740;DHT22;8990;33.226;-97.150;2023-02-19T07:21:44;9.40;99.90
17740;DHT22;8990;33.226;-97.150;2023-02-19T07:24:13;9.40;99.90
17740;DHT22;8990;33.226;-97.150;2023-02-19T07:26:42;9.40;99.90
17740;DHT22;8990;33.226;-97.150;2023-02-19T07:29:13;9.40;99.90
17740;DHT22;8990;33.226;-97.150;2023-02-19T07:31:43;9.40;99.90
17740;DHT22;8990;33.226;-97.150;2023-02-19T07:34:12;9.40;99.90
17740;DHT22;8990;33.226;-97.150;2023-02-19T07:36:41;9.30;99.90
17740;DHT22;8990;33.226;-97.150;2023-02-19T07:39:12;9.40;99.90
17740;DHT22;8990;33.226;-97.150;2023-02-19T07:41:43;9.40;99.90
17740;DHT22;8990;33.226;-97.150;2023-02-19T07:44:27;9.40;99.90
17740;DHT22;8990;33.226;-97.150;2023-02-19T07:46:56;9.30;99.90
17740;DHT22;8990;33.226;-97.150;2023-02-19T07:49:25;9.30;99.90
17740;DHT22;8990;33.226;-97.150;2023-02-19T07:51:55;9.30;99.90
17740;DHT22;8990;33.226;-97.150;2023-02-19T07:54:24;9.30;99.90
17740;DHT22;8990;33.226;-97.150;2023-02-19T07:56:54;9.30;99.90
17740;DHT22;8990;33.226;-97.150;2023-02-19T07:59:26;9.30;99.90
17740;DHT22;8990;33.226;-97.150;2023-02-19T08:01:55;9.20;99.90
17740;DHT22;8990;33.226;-97.150;2023-02-19T08:04:43;9.20;99.90
17740;DHT22;8990;33.226;-97.150;2023-02-19T08:07:12;9.20;99.90
17740;DHT22;8990;33.226;-97.150;2023-02-19T08:09:41;9.30;99.90
17740;DHT22;8990;33.226;-97.150;2023-02-19T08:12:31;9.20;99.90
17740;DHT22;8990;33.226;-97.150;2023-02-19T08:15:19;9.20;99.90
17740;DHT22;8990;33.226;-97.150;2023-02-19T08:17:49;9.20;99.90
17740;DHT22;8990;33.226;-97.150;2023-02-19T08:20:19;9.10;99.90
17740;DHT22;8990;33.226;-97.150;2023-02-19T08:22:48;9.10;99.90
17740;DHT22;8990;33.226;-97.150;2023-02-19T08:25:18;9.00;99.90
17740;DHT22;8990;33.226;-97.150;2023-02-19T08:27:46;9.10;99.90
17740;DHT22;8990;33.226;-97.150;2023-02-19T08:30:18;9.10;99.90
17740;DHT22;8990;33.226;-97.150;2023-02-19T08:32:47;9.00;99.90
17740;DHT22;8990;33.226;-97.150;2023-02-19T08:35:17;9.00;99.90
17740;DHT22;8990;33.226;-97.150;2023-02-19T08:37:46;9.00;99.90
17740;DHT22;8990;33.226;-97.150;2023-02-19T08:40:16;9.00;99.90
17740;DHT22;8990;33.226;-97.150;2023-02-19T08:42:46;9.00;99.90
17740;DHT22;8990;33.226;-97.150;2023-02-19T08:45:15;8.90;99.90
17740;DHT22;8990;33.226;-97.150;2023-02-19T08:47:46;8.90;99.90
17740;DHT22;8990;33.226;-97.150;2023-02-19T08:50:15;8.90;99.90
17740;DHT22;8990;33.226;-97.150;2023-02-19T08:52:44;9.00;99.90
17740;DHT22;8990;33.226;-97.150;2023-02-19T08:55:14;9.00;99.90
17740;DHT22;8990;33.226;-97.150;2023-02-19T08:57:44;9.00;99.90
17740;DHT22;8990;33.226;-97.150;2023-02-19T09:00:14;9.00;99.90
17740;DHT22;8990;33.226;-97.150;2023-02-19T09:02:43;9.00;99.90
17740;DHT22;8990;33.226;-97.150;2023-02-19T09:05:15;8.90;99.90
17740;DHT22;8990;33.226;-97.150;2023-02-19T09:07:45;8.90;99.90
17740;DHT22;8990;33.226;-97.150;2023-02-19T09:10:14;8.90;99.90
17740;DHT22;8990;33.226;-97.150;2023-02-19T09:12:44;8.90;99.90
17740;DHT22;8990;33.226;-97.150;2023-02-19T09:15:13;8.90;99.90
17740;DHT22;8990;33.226;-97.150;2023-02-19T09:17:43;8.80;99.90
17740;DHT22;8990;33.226;-97.150;2023-02-19T09:20:14;8.80;99.90
17740;DHT22;8990;33.226;-97.150;2023-02-19T09:22:43;8.80;99.90
17740;DHT22;8990;33.226;-97.150;2023-02-19T09:25:12;8.80;99.90
17740;DHT22;8990;33.226;-97.150;2023-02-19T09:27:42;8.80;99.90
17740;DHT22;8990;33.226;-97.150;2023-02-19T09:30:11;8.70;99.90
17740;DHT22;8990;33.226;-97.150;2023-02-19T09:32:40;8.70;99.90
17740;DHT22;8990;33.226;-97.150;2023-02-19T09:35:10;8.70;99.90
17740;DHT22;8990;33.226;-97.150;2023-02-19T09:37:41;8.70;99.90
17740;DHT22;8990;33.226;-97.150;2023-02-19T09:40:10;8.80;99.90
17740;DHT22;8990;33.226;-97.150;2023-02-19T09:42:40;8.70;99.90
17740;DHT22;8990;33.226;-97.150;2023-02-19T09:45:18;8.70;99.90
17740;DHT22;8990;33.226;-97.150;2023-02-19T09:47:49;8.70;99.90
17740;DHT22;8990;33.226;-97.150;2023-02-19T09:50:26;8.70;99.90
17740;DHT22;8990;33.226;-97.150;2023-02-19T09:53:00;8.70;99.90
17740;DHT22;8990;33.226;-97.150;2023-02-19T09:55:33;8.70;99.90
17740;DHT22;8990;33.226;-97.150;2023-02-19T09:58:19;8.70;99.90
17740;DHT22;8990;33.226;-97.150;2023-02-19T10:00:52;8.70;99.90
17740;DHT22;8990;33.226;-97.150;2023-02-19T10:03:25;8.70;99.90
17740;DHT22;8990;33.226;-97.150;2023-02-19T10:05:59;8.70;99.90
17740;DHT22;8990;33.226;-97.150;2023-02-19T10:08:32;8.80;99.90
17740;DHT22;8990;33.226;-97.150;2023-02-19T10:11:04;8.70;99.90
17740;DHT22;8990;33.226;-97.150;2023-02-19T10:13:36;8.80;99.90
17740;DHT22;8990;33.226;-97.150;2023-02-19T10:16:09;8.70;99.90
17740;DHT22;8990;33.226;-97.150;2023-02-19T10:18:43;8.70;99.90
17740;DHT22;8990;33.226;-97.150;2023-02-19T10:21:16;8.70;99.90
17740;DHT22;8990;33.226;-97.150;2023-02-19T10:23:50;8.60;99.90
17740;DHT22;8990;33.226;-97.150;2023-02-19T10:26:22;8.70;99.90
17740;DHT22;8990;33.226;-97.150;2023-02-19T10:28:53;8.70;99.90
17740;DHT22;8990;33.226;-97.150;2023-02-19T10:31:23;8.70;99.90
17740;DHT22;8990;33.226;-97.150;2023-02-19T10:33:55;8.70;99.90
17740;DHT22;8990;33.226;-97.150;2023-02-19T10:36:28;8.70;99.90
17740;DHT22;8990;33.226;-97.150;2023-02-19T10:39:00;8.70;99.90
17740;DHT22;8990;33.226;-97.150;2023-02-19T10:41:30;8.70;99.90
17740;DHT22;8990;33.226;-97.150;2023-02-19T10:44:03;8.70;99.90
17740;DHT22;8990;33.226;-97.150;2023-02-19T10:46:40;8.70;99.90
17740;DHT22;8990;33.226;-97.150;2023-02-19T10:49:19;8.70;99.90
17740;DHT22;8990;33.226;-97.150;2023-02-19T10:51:51;8.70;99.90
17740;DHT22;8990;33.226;-97.150;2023-02-19T10:54:27;8.80;99.90
17740;DHT22;8990;33.226;-97.150;2023-02-19T11:00:20;8.70;99.90
17740;DHT22;8990;33.226;-97.150;2023-02-19T11:06:03;8.70;99.90
17740;DHT22;8990;33.226;-97.150;2023-02-19T11:08:47;8.70;99.90
17740;DHT22;8990;33.226;-97.150;2023-02-19T11:11:30;8.70;99.90
17740;DHT22;8990;33.226;-97.150;2023-02-19T11:14:03;8.70;99.90
17740;DHT22;8990;33.226;-97.150;2023-02-19T11:16:41;8.70;99.90
17740;DHT22;8990;33.226;-97.150;2023-02-19T11:19:23;8.70;99.90
17740;DHT22;8990;33.226;-97.150;2023-02-19T11:21:55;8.70;99.90
17740;DHT22;8990;33.226;-97.150;2023-02-19T11:24:30;8.70;99.90
17740;DHT22;8990;33.226;-97.150;2023-02-19T11:27:04;8.60;99.90
17740;DHT22;8990;33.226;-97.150;2023-02-19T11:29:34;8.60;99.90
17740;DHT22;8990;33.226;-97.150;2023-02-19T11:32:23;8.60;99.90
17740;DHT22;8990;33.226;-97.150;2023-02-19T11:35:13;8.60;99.90
17740;DHT22;8990;33.226;-97.150;2023-02-19T11:37:59;8.60;99.90
17740;DHT22;8990;33.226;-97.150;2023-02-19T11:40:38;8.60;99.90
17740;DHT22;8990;33.226;-97.150;2023-02-19T11:46:03;8.60;99.90
17740;DHT22;8990;33.226;-97.150;2023-02-19T11:51:53;8.50;99.90
17740;DHT22;8990;33.226;-97.150;2023-02-19T11:54:49;8.50;99.90
17740;DHT22;8990;33.226;-97.150;2023-02-19T11:57:34;8.50;99.90
17740;DHT22;8990;33.226;-97.150;2023-02-19T12:00:30;8.50;99.90
17740;DHT22;8990;33.226;-97.150;2023-02-19T12:03:21;8.40;99.90
17740;DHT22;8990;33.226;-97.150;2023-02-19T12:06:04;8.50;99.90
17740;DHT22;8990;33.226;-97.150;2023-02-19T12:08:56;8.40;99.90
17740;DHT22;8990;33.226;-97.150;2023-02-19T12:12:04;8.40;99.90
17740;DHT22;8990;33.226;-97.150;2023-02-19T12:15:05;8.40;99.90
17740;DHT22;8990;33.226;-97.150;2023-02-19T12:18:06;8.50;99.90
17740;DHT22;8990;33.226;-97.150;2023-02-19T12:20:42;8.30;99.90
17740;DHT22;8990;33.226;-97.150;2023-02-19T12:23:41;8.30;99.90
17740;DHT22;8990;33.226;-97.150;2023-02-19T12:26:21;8.20;99.90
17740;DHT22;8990;33.226;-97.150;2023-02-19T12:29:17;8.20;99.90
17740;DHT22;8990;33.226;-97.150;2023-02-19T12:32:14;8.20;99.90
17740;DHT22;8990;33.226;-97.150;2023-02-19T12:35:20;8.10;99.90
17740;DHT22;8990;33.226;-97.150;2023-02-19T12:37:59;8.20;99.90
17740;DHT22;8990;33.226;-97.150;2023-02-19T12:40:39;8.20;99.90
17740;DHT22;8990;33.226;-97.150;2023-02-19T12:43:16;8.20;99.90
17740;DHT22;8990;33.226;-97.150;2023-02-19T12:45:51;8.20;99.90
17740;DHT22;8990;33.226;-97.150;2023-02-19T12:48:28;8.20;99.90
17740;DHT22;8990;33.226;-97.150;2023-02-19T12:51:04;8.20;99.90
17740;DHT22;8990;33.226;-97.150;2023-02-19T12:53:40;8.10;99.90
17740;DHT22;8990;33.226;-97.150;2023-02-19T12:56:17;8.20;99.90
17740;DHT22;8990;33.226;-97.150;2023-02-19T12:58:51;8.10;99.90
17740;DHT22;8990;33.226;-97.150;2023-02-19T13:01:24;8.20;99.90
17740;DHT22;8990;33.226;-97.150;2023-02-19T13:04:12;8.20;99.90
17740;DHT22;8990;33.226;-97.150;2023-02-19T13:06:46;8.10;99.90
17740;DHT22;8990;33.226;-97.150;2023-02-19T13:09:23;8.10;99.90
17740;DHT22;8990;33.226;-97.150;2023-02-19T13:11:58;8.20;99.90
17740;DHT22;8990;33.226;-97.150;2023-02-19T13:14:32;8.10;99.90
17740;DHT22;8990;33.226;-97.150;2023-02-19T13:17:07;8.00;99.90
17740;DHT22;8990;33.226;-97.150;2023-02-19T13:19:44;8.10;99.90
17740;DHT22;8990;33.226;-97.150;2023-02-19T13:22:21;8.20;99.90
17740;DHT22;8990;33.226;-97.150;2023-02-19T13:25:10;8.20;99.90
17740;DHT22;8990;33.226;-97.150;2023-02-19T13:28:04;8.20;99.90
17740;DHT22;8990;33.226;-97.150;2023-02-19T13:31:09;8.20;99.90
17740;DHT22;8990;33.226;-97.150;2023-02-19T13:33:47;8.30;99.90
17740;DHT22;8990;33.226;-97.150;2023-02-19T13:36:24;8.30;99.90
17740;DHT22;8990;33.226;-97.150;2023-02-19T13:38:56;8.30;99.90
17740;DHT22;8990;33.226;-97.150;2023-02-19T13:41:29;8.30;99.90
17740;DHT22;8990;33.226;-97.150;2023-02-19T13:44:02;8.40;99.90
17740;DHT22;8990;33.226;-97.150;2023-02-19T13:46:37;8.40;99.90
17740;DHT22;8990;33.226;-97.150;2023-02-19T13:52:41;8.60;99.90
17740;DHT22;8990;33.226;-97.150;2023-02-19T13:55:46;8.60;99.90
17740;DHT22;8990;33.226;-97.150;2023-02-19T14:04:47;8.80;99.90
17740;DHT22;8990;33.226;-97.150;2023-02-19T14:10:59;9.00;99.90
17740;DHT22;8990;33.226;-97.150;2023-02-19T14:13:58;9.10;99.90
17740;DHT22;8990;33.226;-97.150;2023-02-19T14:16:51;9.10;99.90
17740;DHT22;8990;33.226;-97.150;2023-02-19T14:22:57;9.30;99.90
17740;DHT22;8990;33.226;-97.150;2023-02-19T14:25:32;9.40;99.90
17740;DHT22;8990;33.226;-97.150;2023-02-19T14:28:05;9.50;99.90
17740;DHT22;8990;33.226;-97.150;2023-02-19T14:30:46;9.50;99.90
17740;DHT22;8990;33.226;-97.150;2023-02-19T14:33:18;9.60;99.90
17740;DHT22;8990;33.226;-97.150;2023-02-19T14:35:52;9.70;99.90
17740;DHT22;8990;33.226;-97.150;2023-02-19T14:38:25;9.80;99.90
17740;DHT22;8990;33.226;-97.150;2023-02-19T14:40:55;9.80;99.90
17740;DHT22;8990;33.226;-97.150;2023-02-19T14:43:27;10.00;99.90
17740;DHT22;8990;33.226;-97.150;2023-02-19T14:45:59;10.10;99.90
17740;DHT22;8990;33.226;-97.150;2023-02-19T14:48:32;10.10;99.90
17740;DHT22;8990;33.226;-97.150;2023-02-19T14:51:05;10.30;99.90
17740;DHT22;8990;33.226;-97.150;2023-02-19T14:53:38;10.40;99.90
17740;DHT22;8990;33.226;-97.150;2023-02-19T14:56:18;10.50;99.90
17740;DHT22;8990;33.226;-97.150;2023-02-19T14:59:16;10.50;99.90
17740;DHT22;8990;33.226;-97.150;2023-02-19T15:01:58;10.60;99.90
17740;DHT22;8990;33.226;-97.150;2023-02-19T15:04:33;10.60;99.90
17740;DHT22;8990;33.226;-97.150;2023-02-19T15:07:08;10.80;99.90
17740;DHT22;8990;33.226;-97.150;2023-02-19T15:09:40;10.90;99.90
17740;DHT22;8990;33.226;-97.150;2023-02-19T15:12:15;11.00;99.90
17740;DHT22;8990;33.226;-97.150;2023-02-19T15:14:47;11.10;99.90
17740;DHT22;8990;33.226;-97.150;2023-02-19T15:17:23;11.20;99.90
17740;DHT22;8990;33.226;-97.150;2023-02-19T15:19:54;11.20;99.90
17740;DHT22;8990;33.226;-97.150;2023-02-19T15:22:24;11.30;99.90
17740;DHT22;8990;33.226;-97.150;2023-02-19T15:24:55;11.40;99.90
17740;DHT22;8990;33.226;-97.150;2023-02-19T15:27:25;11.60;99.90
17740;DHT22;8990;33.226;-97.150;2023-02-19T15:29:55;11.70;99.90
17740;DHT22;8990;33.226;-97.150;2023-02-19T15:32:26;11.80;99.90
17740;DHT22;8990;33.226;-97.150;2023-02-19T15:34:57;11.80;99.90
17740;DHT22;8990;33.226;-97.150;2023-02-19T15:37:29;11.90;99.90
17740;DHT22;8990;33.226;-97.150;2023-02-19T15:40:02;12.00;99.90
17740;DHT22;8990;33.226;-97.150;2023-02-19T15:42:34;12.10;99.90
17740;DHT22;8990;33.226;-97.150;2023-02-19T15:45:12;12.30;99.90
17740;DHT22;8990;33.226;-97.150;2023-02-19T15:47:48;12.40;99.90
17740;DHT22;8990;33.226;-97.150;2023-02-19T15:50:21;12.50;99.90
17740;DHT22;8990;33.226;-97.150;2023-02-19T15:52:57;12.80;99.90
17740;DHT22;8990;33.226;-97.150;2023-02-19T15:55:34;13.10;99.90
17740;DHT22;8990;33.226;-97.150;2023-02-19T15:58:07;13.30;99.90
17740;DHT22;8990;33.226;-97.150;2023-02-19T16:00:43;13.50;99.90
17740;DHT22;8990;33.226;-97.150;2023-02-19T16:03:18;13.70;99.90
17740;DHT22;8990;33.226;-97.150;2023-02-19T16:05:58;14.00;99.90
17740;DHT22;8990;33.226;-97.150;2023-02-19T16:08:29;14.20;99.90
17740;DHT22;8990;33.226;-97.150;2023-02-19T16:11:01;14.40;99.90
17740;DHT22;8990;33.226;-97.150;2023-02-19T16:13:32;14.60;99.90
17740;DHT22;8990;33.226;-97.150;2023-02-19T16:16:11;14.90;99.90
17740;DHT22;8990;33.226;-97.150;2023-02-19T16:18:44;15.10;99.90
17740;DHT22;8990;33.226;-97.150;2023-02-19T16:21:15;15.10;99.90
17740;DHT22;8990;33.226;-97.150;2023-02-19T16:31:23;15.40;99.90
17740;DHT22;8990;33.226;-97.150;2023-02-19T16:52:14;16.10;99.90
17740;DHT22;8990;33.226;-97.150;2023-02-19T16:54:44;16.40;99.90
17740;DHT22;8990;33.226;-97.150;2023-02-19T16:57:16;16.60;99.90
17740;DHT22;8990;33.226;-97.150;2023-02-19T16:59:46;16.60;99.90
17740;DHT22;8990;33.226;-97.150;2023-02-19T17:02:21;16.80;99.90
17740;DHT22;8990;33.226;-97.150;2023-02-19T17:04:51;16.80;99.90
17740;DHT22;8990;33.226;-97.150;2023-02-19T17:07:22;16.70;99.90
17740;DHT22;8990;33.226;-97.150;2023-02-19T17:09:53;16.60;99.90